sensor_id;sensor_type;location;lat;lon;timestamp;pressure;altitude;pressure_sealevel;temperature;humidity
9905;BME280;4991;43.566;27.820;2023-02-12T00:02:14;99718.72;;;-0.94;100.00
9905;BME280;4991;43.566;27.820;2023-02-12T00:04:40;99727.97;;;-0.90;100.00
9905;BME280;4991;43.566;27.820;2023-02-12T00:07:06;99720.56;;;-0.82;100.00
9905;BME280;4991;43.566;27.820;2023-02-12T00:09:32;99727.13;;;-0.84;100.00
9905;BME280;4991;43.566;27.820;2023-02-12T00:11:57;99724.88;;;-0.81;100.00
9905;BME280;4991;43.566;27.820;2023-02-12T00:14:23;99725.28;;;-0.77;100.00
9905;BME280;4991;43.566;27.820;2023-02-12T00:16:48;99726.72;;;-0.75;100.00
9905;BME280;4991;43.566;27.820;2023-02-12T00:19:14;99725.25;;;-0.71;100.00
9905;BME280;4991;43.566;27.820;2023-02-12T00:21:39;99720.13;;;-0.79;100.00
9905;BME280;4991;43.566;27.820;2023-02-12T00:24:05;99721.38;;;-0.81;100.00
9905;BME280;4991;43.566;27.820;2023-02-12T00:26:31;99711.06;;;-0.71;100.00
9905;BME280;4991;43.566;27.820;2023-02-12T00:28:56;99706.97;;;-0.80;100.00
9905;BME280;4991;43.566;27.820;2023-02-12T00:31:26;99708.22;;;-0.76;100.00
9905;BME280;4991;43.566;27.820;2023-02-12T00:33:52;99707.78;;;-0.73;100.00
9905;BME280;4991;43.566;27.820;2023-02-12T00:36:21;99710.03;;;-0.70;100.00
9905;BME280;4991;43.566;27.820;2023-02-12T00:38:49;99713.34;;;-0.75;100.00
9905;BME280;4991;43.566;27.820;2023-02-12T00:41:15;99713.56;;;-0.70;100.00
9905;BME280;4991;43.566;27.820;2023-02-12T00:43:40;99709.84;;;-0.69;100.00
9905;BME280;4991;43.566;27.820;2023-02-12T00:46:06;99691.53;;;-0.65;100.00
9905;BME280;4991;43.566;27.820;2023-02-12T00:48:34;99691.75;;;-0.73;100.00
9905;BME280;4991;43.566;27.820;2023-02-12T00:51:00;99701.19;;;-0.71;100.00
9905;BME280;4991;43.566;27.820;2023-02-12T00:53:25;99702.22;;;-0.65;100.00
9905;BME280;4991;43.566;27.820;2023-02-12T00:55:51;99698.09;;;-0.74;100.00
9905;BME280;4991;43.566;27.820;2023-02-12T00:58:16;99684.50;;;-0.66;100.00
9905;BME280;4991;43.566;27.820;2023-02-12T01:00:42;99681.28;;;-0.81;100.00
9905;BME280;4991;43.566;27.820;2023-02-12T01:03:09;99677.13;;;-0.77;100.00
9905;BME280;4991;43.566;27.820;2023-02-12T01:05:35;99677.13;;;-0.77;100.00
9905;BME280;4991;43.566;27.820;2023-02-12T01:08:01;99673.44;;;-0.70;100.00
9905;BME280;4991;43.566;27.820;2023-02-12T01:10:28;99670.94;;;-0.71;100.00
9905;BME280;4991;43.566;27.820;2023-02-12T01:12:54;99669.75;;;-0.75;100.00
9905;BME280;4991;43.566;27.820;2023-02-12T01:15:20;99674.69;;;-0.79;100.00
9905;BME280;4991;43.566;27.820;2023-02-12T01:17:46;99667.69;;;-0.80;100.00
9905;BME280;4991;43.566;27.820;2023-02-12T01:20:16;99680.66;;;-0.83;100.00
9905;BME280;4991;43.566;27.820;2023-02-12T01:22:42;99679.41;;;-0.81;100.00
9905;BME280;4991;43.566;27.820;2023-02-12T01:25:08;99670.19;;;-0.91;100.00
9905;BME280;4991;43.566;27.820;2023-02-12T01:27:34;99674.50;;;-0.90;100.00
9905;BME280;4991;43.566;27.820;2023-02-12T01:30:00;99675.53;;;-0.91;100.00
9905;BME280;4991;43.566;27.820;2023-02-12T01:32:25;99678.59;;;-0.88;100.00
9905;BME280;4991;43.566;27.820;2023-02-12T01:34:51;99675.34;;;-0.90;100.00
9905;BME280;4991;43.566;27.820;2023-02-12T01:37:17;99672.66;;;-0.90;100.00
9905;BME280;4991;43.566;27.820;2023-02-12T01:39:43;99675.53;;;-0.91;100.00
9905;BME280;4991;43.566;27.820;2023-02-12T01:42:11;99677.81;;;-0.95;100.00
9905;BME280;4991;43.566;27.820;2023-02-12T01:44:43;99676.34;;;-0.91;100.00
9905;BME280;4991;43.566;27.820;2023-02-12T01:47:17;99679.22;;;-0.92;100.00
9905;BME280;4991;43.566;27.820;2023-02-12T01:49:45;99668.31;;;-0.91;100.00
9905;BME280;4991;43.566;27.820;2023-02-12T01:52:16;99659.88;;;-0.88;100.00
9905;BME280;4991;43.566;27.820;2023-02-12T01:54:44;99657.66;;;-0.97;100.00
9905;BME280;4991;43.566;27.820;2023-02-12T01:57:12;99657.66;;;-0.97;100.00
9905;BME280;4991;43.566;27.820;2023-02-12T01:59:39;99656.84;;;-0.91;100.00
9905;BME280;4991;43.566;27.820;2023-02-12T02:02:05;99648.81;;;-0.91;100.00
9905;BME280;4991;43.566;27.820;2023-02-12T02:04:36;99664.44;;;-0.95;100.00
9905;BME280;4991;43.566;27.820;2023-02-12T02:07:05;99650.88;;;-1.00;100.00
9905;BME280;4991;43.566;27.820;2023-02-12T02:09:35;99647.59;;;-1.02;100.00
9905;BME280;4991;43.566;27.820;2023-02-12T02:12:01;99634.63;;;-0.98;100.00
9905;BME280;4991;43.566;27.820;2023-02-12T02:14:45;99623.72;;;-0.97;100.00
9905;BME280;4991;43.566;27.820;2023-02-12T02:17:29;99630.72;;;-1.02;100.00
9905;BME280;4991;43.566;27.820;2023-02-12T02:22:46;99636.72;;;-1.13;100.00
9905;BME280;4991;43.566;27.820;2023-02-12T02:31:14;99655.22;;;-1.12;100.00
9905;BME280;4991;43.566;27.820;2023-02-12T02:33:57;99648.81;;;-1.04;100.00
9905;BME280;4991;43.566;27.820;2023-02-12T02:36:41;99645.13;;;-1.10;100.00
9905;BME280;4991;43.566;27.820;2023-02-12T02:39:17;99656.81;;;-1.04;100.00
9905;BME280;4991;43.566;27.820;2023-02-12T02:41:52;99653.13;;;-0.97;100.00
9905;BME280;4991;43.566;27.820;2023-02-12T02:44:53;99653.13;;;-0.97;100.00
9905;BME280;4991;43.566;27.820;2023-02-12T02:47:23;99649.03;;;-0.93;100.00
9905;BME280;4991;43.566;27.820;2023-02-12T02:49:55;99652.50;;;-0.99;100.00
9905;BME280;4991;43.566;27.820;2023-02-12T02:52:29;99651.06;;;-0.88;100.00
9905;BME280;4991;43.566;27.820;2023-02-12T02:55:02;99655.56;;;-0.89;100.00
9905;BME280;4991;43.566;27.820;2023-02-12T02:57:35;99661.94;;;-0.83;100.00
9905;BME280;4991;43.566;27.820;2023-02-12T03:00:09;99663.56;;;-0.76;100.00
9905;BME280;4991;43.566;27.820;2023-02-12T03:02:38;99673.25;;;-0.75;100.00
9905;BME280;4991;43.566;27.820;2023-02-12T03:07:53;99662.13;;;-0.72;100.00
9905;BME280;4991;43.566;27.820;2023-02-12T03:10:27;99661.47;;;-0.67;100.00
9905;BME280;4991;43.566;27.820;2023-02-12T03:13:18;99670.31;;;-0.60;100.00
9905;BME280;4991;43.566;27.820;2023-02-12T03:15:59;99663.50;;;-0.56;100.00
9905;BME280;4991;43.566;27.820;2023-02-12T03:18:35;99665.16;;;-0.55;100.00
9905;BME280;4991;43.566;27.820;2023-02-12T03:21:09;99668.22;;;-0.52;100.00
9905;BME280;4991;43.566;27.820;2023-02-12T03:23:41;99670.69;;;-0.50;100.00
9905;BME280;4991;43.566;27.820;2023-02-12T03:26:12;99671.69;;;-0.45;100.00
9905;BME280;4991;43.566;27.820;2023-02-12T03:28:39;99675.63;;;-0.54;100.00
9905;BME280;4991;43.566;27.820;2023-02-12T03:31:28;99675.84;;;-0.55;100.00
9905;BME280;4991;43.566;27.820;2023-02-12T03:36:55;99663.72;;;-0.58;100.00
9905;BME280;4991;43.566;27.820;2023-02-12T03:39:49;99650.94;;;-0.56;100.00
9905;BME280;4991;43.566;27.820;2023-02-12T03:44:52;99661.84;;;-0.57;100.00
9905;BME280;4991;43.566;27.820;2023-02-12T03:52:34;99669.91;;;-0.64;100.00
9905;BME280;4991;43.566;27.820;2023-02-12T03:55:00;99666.00;;;-0.68;100.00
9905;BME280;4991;43.566;27.820;2023-02-12T03:57:28;99672.41;;;-0.69;100.00
9905;BME280;4991;43.566;27.820;2023-02-12T03:59:57;99672.63;;;-0.77;100.00
9905;BME280;4991;43.566;27.820;2023-02-12T04:02:23;99672.63;;;-0.77;100.00
9905;BME280;4991;43.566;27.820;2023-02-12T04:04:50;99689.47;;;-0.70;100.00
9905;BME280;4991;43.566;27.820;2023-02-12T04:07:16;99698.53;;;-0.77;100.00
9905;BME280;4991;43.566;27.820;2023-02-12T04:09:42;99698.75;;;-0.79;100.00
9905;BME280;4991;43.566;27.820;2023-02-12T04:12:38;99694.66;;;-0.81;100.00
9905;BME280;4991;43.566;27.820;2023-02-12T04:23:43;99714.63;;;-0.97;100.00
9905;BME280;4991;43.566;27.820;2023-02-12T04:29:40;99728.19;;;-1.11;100.00
9905;BME280;4991;43.566;27.820;2023-02-12T04:32:24;99728.41;;;-1.19;100.00
9905;BME280;4991;43.566;27.820;2023-02-12T04:35:11;99725.31;;;-1.36;100.00
9905;BME280;4991;43.566;27.820;2023-02-12T04:37:47;99723.25;;;-1.41;100.00
9905;BME280;4991;43.566;27.820;2023-02-12T04:40:17;99728.16;;;-1.51;100.00
9905;BME280;4991;43.566;27.820;2023-02-12T04:42:44;99736.81;;;-1.49;100.00
9905;BME280;4991;43.566;27.820;2023-02-12T04:45:13;99733.09;;;-1.54;100.00
9905;BME280;4991;43.566;27.820;2023-02-12T04:47:39;99731.66;;;-1.63;100.00
9905;BME280;4991;43.566;27.820;2023-02-12T04:50:05;99729.81;;;-1.63;100.00
9905;BME280;4991;43.566;27.820;2023-02-12T04:52:31;99729.75;;;-1.76;100.00
9905;BME280;4991;43.566;27.820;2023-02-12T04:54:57;99724.41;;;-1.82;100.00
9905;BME280;4991;43.566;27.820;2023-02-12T04:57:22;99733.88;;;-1.80;100.00
9905;BME280;4991;43.566;27.820;2023-02-12T04:59:48;99743.09;;;-1.82;100.00
9905;BME280;4991;43.566;27.820;2023-02-12T05:02:14;99740.84;;;-1.85;100.00
9905;BME280;4991;43.566;27.820;2023-02-12T05:04:39;99747.81;;;-1.91;100.00
9905;BME280;4991;43.566;27.820;2023-02-12T05:07:06;99745.53;;;-1.94;100.00
9905;BME280;4991;43.566;27.820;2023-02-12T05:09:32;99750.50;;;-1.91;100.00
9905;BME280;4991;43.566;27.820;2023-02-12T05:11:58;99746.34;;;-2.00;100.00
9905;BME280;4991;43.566;27.820;2023-02-12T05:14:24;99754.53;;;-2.01;100.00
9905;BME280;4991;43.566;27.820;2023-02-12T05:16:50;99755.94;;;-2.05;100.00
9905;BME280;4991;43.566;27.820;2023-02-12T05:19:16;99760.88;;;-2.09;100.00
9905;BME280;4991;43.566;27.820;2023-02-12T05:21:41;99767.22;;;-2.10;100.00
9905;BME280;4991;43.566;27.820;2023-02-12T05:24:08;99767.66;;;-2.06;100.00
9905;BME280;4991;43.566;27.820;2023-02-12T05:26:33;99772.81;;;-2.05;100.00
9905;BME280;4991;43.566;27.820;2023-02-12T05:28:59;99773.63;;;-2.04;100.00
9905;BME280;4991;43.566;27.820;2023-02-12T05:31:25;99771.75;;;-2.04;100.00
9905;BME280;4991;43.566;27.820;2023-02-12T05:33:51;99781.44;;;-2.03;100.00
9905;BME280;4991;43.566;27.820;2023-02-12T05:36:20;99775.50;;;-1.98;100.00
9905;BME280;4991;43.566;27.820;2023-02-12T05:38:46;99772.44;;;-1.89;100.00
9905;BME280;4991;43.566;27.820;2023-02-12T05:41:15;99779.03;;;-1.85;100.00
9905;BME280;4991;43.566;27.820;2023-02-12T05:43:41;99783.16;;;-1.76;100.00
9905;BME280;4991;43.566;27.820;2023-02-12T05:46:08;99789.78;;;-1.65;100.00
9905;BME280;4991;43.566;27.820;2023-02-12T05:48:34;99800.25;;;-1.57;100.00
9905;BME280;4991;43.566;27.820;2023-02-12T05:51:19;99803.38;;;-1.47;100.00
9905;BME280;4991;43.566;27.820;2023-02-12T05:53:47;99801.97;;;-1.37;100.00
9905;BME280;4991;43.566;27.820;2023-02-12T05:56:14;99803.81;;;-1.24;100.00
9905;BME280;4991;43.566;27.820;2023-02-12T05:58:43;99812.03;;;-1.25;100.00
9905;BME280;4991;43.566;27.820;2023-02-12T06:01:16;99810.84;;;-1.23;100.00
9905;BME280;4991;43.566;27.820;2023-02-12T06:03:43;99813.72;;;-1.05;100.00
9905;BME280;4991;43.566;27.820;2023-02-12T06:06:09;99826.06;;;-0.97;100.00
9905;BME280;4991;43.566;27.820;2023-02-12T06:08:35;99817.41;;;-1.12;100.00
9905;BME280;4991;43.566;27.820;2023-02-12T06:11:03;99815.56;;;-1.05;100.00
9905;BME280;4991;43.566;27.820;2023-02-12T06:13:30;99821.75;;;-1.05;100.00
9905;BME280;4991;43.566;27.820;2023-02-12T06:15:56;99826.88;;;-1.03;100.00
9905;BME280;4991;43.566;27.820;2023-02-12T06:18:21;99820.72;;;-0.84;100.00
9905;BME280;4991;43.566;27.820;2023-02-12T06:20:47;99821.53;;;-0.84;100.00
9905;BME280;4991;43.566;27.820;2023-02-12T06:23:13;99822.78;;;-0.80;100.00
9905;BME280;4991;43.566;27.820;2023-02-12T06:25:38;99828.94;;;-0.73;100.00
9905;BME280;4991;43.566;27.820;2023-02-12T06:28:04;99828.34;;;-0.68;100.00
9905;BME280;4991;43.566;27.820;2023-02-12T06:30:30;99831.41;;;-0.52;100.00
9905;BME280;4991;43.566;27.820;2023-02-12T06:32:57;99826.06;;;-0.58;100.00
9905;BME280;4991;43.566;27.820;2023-02-12T06:35:23;99827.09;;;-0.59;100.00
9905;BME280;4991;43.566;27.820;2023-02-12T06:37:49;99835.09;;;-0.46;100.00
9905;BME280;4991;43.566;27.820;2023-02-12T06:40:14;99830.56;;;-0.46;100.00
9905;BME280;4991;43.566;27.820;2023-02-12T06:42:42;99840.25;;;-0.51;100.00
9905;BME280;4991;43.566;27.820;2023-02-12T06:45:08;99846.66;;;-0.65;100.00
9905;BME280;4991;43.566;27.820;2023-02-12T06:47:33;99852.63;;;-0.50;100.00
9905;BME280;4991;43.566;27.820;2023-02-12T06:49:59;99846.22;;;-0.49;100.00
9905;BME280;4991;43.566;27.820;2023-02-12T06:52:24;99847.03;;;-0.42;100.00
9905;BME280;4991;43.566;27.820;2023-02-12T06:54:50;99854.03;;;-0.35;100.00
9905;BME280;4991;43.566;27.820;2023-02-12T06:57:16;99854.44;;;-0.38;100.00
9905;BME280;4991;43.566;27.820;2023-02-12T06:59:41;99851.31;;;-0.28;100.00
9905;BME280;4991;43.566;27.820;2023-02-12T07:02:09;99859.97;;;-0.26;100.00
9905;BME280;4991;43.566;27.820;2023-02-12T07:04:37;99863.28;;;-0.24;100.00
9905;BME280;4991;43.566;27.820;2023-02-12T07:07:03;99862.84;;;-0.21;100.00
9905;BME280;4991;43.566;27.820;2023-02-12T07:09:30;99857.91;;;-0.18;100.00
9905;BME280;4991;43.566;27.820;2023-02-12T07:11:59;99862.63;;;-0.13;100.00
9905;BME280;4991;43.566;27.820;2023-02-12T07:14:25;99868.41;;;-0.16;100.00
9905;BME280;4991;43.566;27.820;2023-02-12T07:16:53;99866.75;;;-0.11;100.00
9905;BME280;4991;43.566;27.820;2023-02-12T07:19:19;99872.09;;;-0.04;100.00
9905;BME280;4991;43.566;27.820;2023-02-12T07:21:45;99864.50;;;-0.07;100.00
9905;BME280;4991;43.566;27.820;2023-02-12T07:24:11;99869.81;;;-0.01;100.00
9905;BME280;4991;43.566;27.820;2023-02-12T07:26:37;99874.53;;;0.11;100.00
9905;BME280;4991;43.566;27.820;2023-02-12T07:29:03;99876.94;;;0.25;100.00
9905;BME280;4991;43.566;27.820;2023-02-12T07:31:29;99878.81;;;0.31;100.00
9905;BME280;4991;43.566;27.820;2023-02-12T07:33:57;99870.16;;;0.29;100.00
9905;BME280;4991;43.566;27.820;2023-02-12T07:36:26;99873.84;;;0.35;100.00
9905;BME280;4991;43.566;27.820;2023-02-12T07:38:53;99871.72;;;0.43;100.00
9905;BME280;4991;43.566;27.820;2023-02-12T07:41:21;99869.03;;;0.43;100.00
9905;BME280;4991;43.566;27.820;2023-02-12T07:43:48;99874.38;;;0.56;100.00
9905;BME280;4991;43.566;27.820;2023-02-12T07:46:20;99871.16;;;0.79;100.00
9905;BME280;4991;43.566;27.820;2023-02-12T07:48:47;99881.81;;;0.92;100.00
9905;BME280;4991;43.566;27.820;2023-02-12T07:51:15;99890.81;;;1.04;100.00
9905;BME280;4991;43.566;27.820;2023-02-12T07:53:41;99897.16;;;1.16;100.00
9905;BME280;4991;43.566;27.820;2023-02-12T07:56:34;99892.47;;;1.29;100.00
9905;BME280;4991;43.566;27.820;2023-02-12T07:59:04;99891.41;;;1.37;100.00
9905;BME280;4991;43.566;27.820;2023-02-12T08:01:36;99892.13;;;1.51;100.00
9905;BME280;4991;43.566;27.820;2023-02-12T08:04:08;99893.09;;;1.56;100.00
9905;BME280;4991;43.566;27.820;2023-02-12T08:06:36;99888.19;;;1.53;100.00
9905;BME280;4991;43.566;27.820;2023-02-12T08:09:05;99889.06;;;1.47;100.00
9905;BME280;4991;43.566;27.820;2023-02-12T08:11:32;99892.31;;;1.56;100.00
9905;BME280;4991;43.566;27.820;2023-02-12T08:13:59;99896.91;;;1.49;100.00
9905;BME280;4991;43.566;27.820;2023-02-12T08:16:26;99899.63;;;1.42;100.00
9905;BME280;4991;43.566;27.820;2023-02-12T08:18:53;99898.25;;;1.33;100.00
9905;BME280;4991;43.566;27.820;2023-02-12T08:21:22;99906.84;;;1.42;100.00
9905;BME280;4991;43.566;27.820;2023-02-12T08:23:49;99906.34;;;1.51;100.00
9905;BME280;4991;43.566;27.820;2023-02-12T08:26:22;99910.50;;;1.54;100.00
9905;BME280;4991;43.566;27.820;2023-02-12T08:28:53;99913.91;;;1.67;100.00
9905;BME280;4991;43.566;27.820;2023-02-12T08:31:30;99910.75;;;1.70;100.00
9905;BME280;4991;43.566;27.820;2023-02-12T08:33:56;99913.38;;;2.01;100.00
9905;BME280;4991;43.566;27.820;2023-02-12T08:36:24;99922.19;;;2.08;100.00
9905;BME280;4991;43.566;27.820;2023-02-12T08:38:51;99922.22;;;2.26;100.00
9905;BME280;4991;43.566;27.820;2023-02-12T08:41:18;99936.94;;;1.99;100.00
9905;BME280;4991;43.566;27.820;2023-02-12T08:43:44;99932.31;;;2.06;100.00
9905;BME280;4991;43.566;27.820;2023-02-12T08:46:11;99937.25;;;2.09;100.00
9905;BME280;4991;43.566;27.820;2023-02-12T08:48:38;99945.06;;;1.93;100.00
9905;BME280;4991;43.566;27.820;2023-02-12T08:51:15;99947.56;;;1.88;100.00
9905;BME280;4991;43.566;27.820;2023-02-12T08:53:43;99938.34;;;1.84;100.00
9905;BME280;4991;43.566;27.820;2023-02-12T08:56:10;99947.03;;;1.79;100.00
9905;BME280;4991;43.566;27.820;2023-02-12T08:58:36;99950.81;;;1.72;100.00
9905;BME280;4991;43.566;27.820;2023-02-12T09:01:04;99953.94;;;1.69;100.00
9905;BME280;4991;43.566;27.820;2023-02-12T09:03:30;99955.13;;;1.73;100.00
9905;BME280;4991;43.566;27.820;2023-02-12T09:05:56;99957.03;;;1.72;100.00
9905;BME280;4991;43.566;27.820;2023-02-12T09:08:21;99960.59;;;1.60;100.00
9905;BME280;4991;43.566;27.820;2023-02-12T09:10:47;99958.63;;;1.49;100.00
9905;BME280;4991;43.566;27.820;2023-02-12T09:13:13;99967.56;;;1.36;100.00
9905;BME280;4991;43.566;27.820;2023-02-12T09:15:42;99969.19;;;1.44;100.00
9905;BME280;4991;43.566;27.820;2023-02-12T09:18:09;99972.72;;;1.44;100.00
9905;BME280;4991;43.566;27.820;2023-02-12T09:20:37;99973.69;;;1.50;100.00
9905;BME280;4991;43.566;27.820;2023-02-12T09:23:04;99972.28;;;1.47;100.00
9905;BME280;4991;43.566;27.820;2023-02-12T09:25:30;99976.03;;;1.40;100.00
9905;BME280;4991;43.566;27.820;2023-02-12T09:28:02;99974.59;;;1.37;100.00
9905;BME280;4991;43.566;27.820;2023-02-12T09:30:28;99971.91;;;1.37;100.00
9905;BME280;4991;43.566;27.820;2023-02-12T09:32:54;99976.28;;;1.31;100.00
9905;BME280;4991;43.566;27.820;2023-02-12T09:35:20;99971.47;;;1.40;100.00
9905;BME280;4991;43.566;27.820;2023-02-12T09:37:46;99975.63;;;1.43;100.00
9905;BME280;4991;43.566;27.820;2023-02-12T09:45:46;99977.44;;;1.73;100.00
9905;BME280;4991;43.566;27.820;2023-02-12T09:50:59;99976.72;;;1.84;100.00
9905;BME280;4991;43.566;27.820;2023-02-12T09:53:30;99976.38;;;1.81;100.00
9905;BME280;4991;43.566;27.820;2023-02-12T09:55:55;99974.44;;;1.88;100.00
9905;BME280;4991;43.566;27.820;2023-02-12T10:00:56;99977.44;;;1.98;100.00
9905;BME280;4991;43.566;27.820;2023-02-12T10:03:22;99976.59;;;2.04;100.00
9905;BME280;4991;43.566;27.820;2023-02-12T10:05:59;99982.47;;;2.12;100.00
9905;BME280;4991;43.566;27.820;2023-02-12T10:08:43;99975.13;;;2.26;100.00
9905;BME280;4991;43.566;27.820;2023-02-12T10:14:04;99978.03;;;2.24;100.00
9905;BME280;4991;43.566;27.820;2023-02-12T10:16:47;99983.03;;;2.21;100.00
9905;BME280;4991;43.566;27.820;2023-02-12T10:19:45;99984.88;;;2.45;100.00
9905;BME280;4991;43.566;27.820;2023-02-12T10:22:37;99975.97;;;2.44;100.00
9905;BME280;4991;43.566;27.820;2023-02-12T10:25:19;99978.16;;;2.54;100.00
9905;BME280;4991;43.566;27.820;2023-02-12T10:27:59;99980.53;;;2.44;100.00
9905;BME280;4991;43.566;27.820;2023-02-12T10:30:43;99978.28;;;2.41;100.00
9905;BME280;4991;43.566;27.820;2023-02-12T10:33:17;99977.34;;;2.35;100.00
9905;BME280;4991;43.566;27.820;2023-02-12T10:35:48;99983.44;;;2.42;100.00
9905;BME280;4991;43.566;27.820;2023-02-12T10:38:19;99981.81;;;2.41;100.00
9905;BME280;4991;43.566;27.820;2023-02-12T10:40:46;99988.75;;;2.49;100.00
9905;BME280;4991;43.566;27.820;2023-02-12T10:43:15;99982.44;;;2.61;100.00
9905;BME280;4991;43.566;27.820;2023-02-12T10:45:42;99987.28;;;2.53;100.00
9905;BME280;4991;43.566;27.820;2023-02-12T10:53:42;99991.44;;;2.49;100.00
9905;BME280;4991;43.566;27.820;2023-02-12T10:56:13;100001.16;;;2.50;100.00
9905;BME280;4991;43.566;27.820;2023-02-12T10:58:41;99991.53;;;2.60;100.00
9905;BME280;4991;43.566;27.820;2023-02-12T11:01:30;100009.00;;;2.70;100.00
9905;BME280;4991;43.566;27.820;2023-02-12T11:03:58;99994.66;;;2.57;100.00
9905;BME280;4991;43.566;27.820;2023-02-12T11:06:30;100003.78;;;2.56;100.00
9905;BME280;4991;43.566;27.820;2023-02-12T11:08:57;100003.78;;;2.56;100.00
9905;BME280;4991;43.566;27.820;2023-02-12T11:11:23;100005.56;;;2.44;100.00
9905;BME280;4991;43.566;27.820;2023-02-12T11:14:03;100007.00;;;2.47;100.00
9905;BME280;4991;43.566;27.820;2023-02-12T11:16:39;100008.47;;;2.43;100.00
9905;BME280;4991;43.566;27.820;2023-02-12T11:19:09;100008.16;;;2.33;100.00
9905;BME280;4991;43.566;27.820;2023-02-12T11:21:43;100019.44;;;2.41;100.00
9905;BME280;4991;43.566;27.820;2023-02-12T11:27:25;100012.22;;;2.42;100.00
9905;BME280;4991;43.566;27.820;2023-02-12T11:30:16;100015.47;;;2.44;100.00
9905;BME280;4991;43.566;27.820;2023-02-12T11:32:41;100009.88;;;2.45;100.00
9905;BME280;4991;43.566;27.820;2023-02-12T11:35:14;100019.00;;;2.44;100.00
9905;BME280;4991;43.566;27.820;2023-02-12T11:37:44;100019.97;;;2.50;100.00
9905;BME280;4991;43.566;27.820;2023-02-12T11:40:24;100017.06;;;2.51;100.00
9905;BME280;4991;43.566;27.820;2023-02-12T11:42:56;100021.16;;;2.54;100.00
9905;BME280;4991;43.566;27.820;2023-02-12T11:45:33;100021.63;;;2.51;100.00
9905;BME280;4991;43.566;27.820;2023-02-12T11:48:00;100017.75;;;2.65;100.00
9905;BME280;4991;43.566;27.820;2023-02-12T11:50:28;100024.38;;;2.62;100.00
9905;BME280;4991;43.566;27.820;2023-02-12T11:53:19;100014.69;;;2.61;100.00
9905;BME280;4991;43.566;27.820;2023-02-12T11:55:58;100021.78;;;2.56;100.00
9905;BME280;4991;43.566;27.820;2023-02-12T11:58:25;100026.41;;;2.67;100.00
9905;BME280;4991;43.566;27.820;2023-02-12T12:01:09;100018.66;;;2.77;100.00
9905;BME280;4991;43.566;27.820;2023-02-12T12:06:34;100018.56;;;2.84;100.00
9905;BME280;4991;43.566;27.820;2023-02-12T12:09:29;100021.47;;;3.00;100.00
9905;BME280;4991;43.566;27.820;2023-02-12T12:14:45;100019.09;;;2.92;100.00
9905;BME280;4991;43.566;27.820;2023-02-12T12:17:40;100026.13;;;2.93;100.00
9905;BME280;4991;43.566;27.820;2023-02-12T12:20:51;100026.59;;;2.90;100.00
9905;BME280;4991;43.566;27.820;2023-02-12T12:23:21;100022.69;;;2.86;100.00
9905;BME280;4991;43.566;27.820;2023-02-12T12:25:58;100022.16;;;2.78;100.00
9905;BME280;4991;43.566;27.820;2023-02-12T12:28:41;100017.78;;;2.83;100.00
9905;BME280;4991;43.566;27.820;2023-02-12T12:34:10;100021.25;;;2.84;100.00
9905;BME280;4991;43.566;27.820;2023-02-12T13:13:49;100062.66;;;2.83;100.00
9905;BME280;4991;43.566;27.820;2023-02-12T13:16:27;100072.13;;;2.67;100.00
9905;BME280;4991;43.566;27.820;2023-02-12T13:21:57;100082.94;;;2.60;100.00
9905;BME280;4991;43.566;27.820;2023-02-12T13:26:56;100102.88;;;2.28;100.00
9905;BME280;4991;43.566;27.820;2023-02-12T13:29:37;100101.44;;;2.26;100.00
9905;BME280;4991;43.566;27.820;2023-02-12T13:32:12;100109.38;;;2.14;100.00
9905;BME280;4991;43.566;27.820;2023-02-12T13:34:42;100107.78;;;2.07;100.00
9905;BME280;4991;43.566;27.820;2023-02-12T13:39:57;100123.09;;;2.06;100.00
9905;BME280;4991;43.566;27.820;2023-02-12T13:48:54;100128.84;;;2.10;100.00
9905;BME280;4991;43.566;27.820;2023-02-12T13:51:41;100133.97;;;2.18;100.00
9905;BME280;4991;43.566;27.820;2023-02-12T13:56:55;100136.72;;;2.36;100.00
9905;BME280;4991;43.566;27.820;2023-02-12T14:05:34;100142.41;;;4.68;100.00
9905;BME280;4991;43.566;27.820;2023-02-12T14:08:02;100146.19;;;4.90;100.00
9905;BME280;4991;43.566;27.820;2023-02-12T14:10:39;100150.75;;;5.24;100.00
9905;BME280;4991;43.566;27.820;2023-02-12T14:13:21;100147.78;;;5.60;100.00
9905;BME280;4991;43.566;27.820;2023-02-12T14:15:55;100140.47;;;5.61;100.00
9905;BME280;4991;43.566;27.820;2023-02-12T14:23:40;100156.88;;;5.31;100.00
9905;BME280;4991;43.566;27.820;2023-02-12T14:26:16;100159.66;;;5.48;100.00
9905;BME280;4991;43.566;27.820;2023-02-12T14:33:43;100164.19;;;6.21;100.00
9905;BME280;4991;43.566;27.820;2023-02-12T14:36:18;100162.41;;;5.87;100.00
9905;BME280;4991;43.566;27.820;2023-02-12T14:44:37;100181.78;;;5.10;100.00
9905;BME280;4991;43.566;27.820;2023-02-12T14:47:10;100185.53;;;5.09;100.00
9905;BME280;4991;43.566;27.820;2023-02-12T14:49:44;100199.13;;;5.02;100.00
9905;BME280;4991;43.566;27.820;2023-02-12T14:52:15;100202.97;;;4.72;100.00
9905;BME280;4991;43.566;27.820;2023-02-12T14:54:59;100197.69;;;4.65;100.00
9905;BME280;4991;43.566;27.820;2023-02-12T14:57:39;100203.88;;;4.54;100.00
9905;BME280;4991;43.566;27.820;2023-02-12T15:02:54;100224.72;;;4.18;100.00
9905;BME280;4991;43.566;27.820;2023-02-12T15:05:26;100222.03;;;4.18;100.00
9905;BME280;4991;43.566;27.820;2023-02-12T15:07:56;100224.00;;;3.92;100.00
9905;BME280;4991;43.566;27.820;2023-02-12T15:10:39;100233.13;;;3.91;100.00
9905;BME280;4991;43.566;27.820;2023-02-12T15:15:54;100235.19;;;3.35;100.00
9905;BME280;4991;43.566;27.820;2023-02-12T15:21:32;100246.50;;;3.01;100.00
9905;BME280;4991;43.566;27.820;2023-02-12T15:24:07;100246.81;;;2.87;100.00
9905;BME280;4991;43.566;27.820;2023-02-12T15:26:36;100259.16;;;2.70;100.00
9905;BME280;4991;43.566;27.820;2023-02-12T15:29:04;100267.69;;;2.60;100.00
9905;BME280;4991;43.566;27.820;2023-02-12T15:31:30;100264.47;;;2.45;100.00
9905;BME280;4991;43.566;27.820;2023-02-12T15:33:58;100276.31;;;2.31;100.00
9905;BME280;4991;43.566;27.820;2023-02-12T15:36:28;100283.59;;;2.24;100.00
9905;BME280;4991;43.566;27.820;2023-02-12T15:38:56;100282.63;;;2.12;100.00
9905;BME280;4991;43.566;27.820;2023-02-12T15:41:43;100292.78;;;2.03;100.00
9905;BME280;4991;43.566;27.820;2023-02-12T15:47:09;100316.59;;;1.87;100.00
9905;BME280;4991;43.566;27.820;2023-02-12T15:49:37;100315.59;;;1.75;100.00
9905;BME280;4991;43.566;27.820;2023-02-12T15:52:18;100324.50;;;1.69;100.00
9905;BME280;4991;43.566;27.820;2023-02-12T15:54:45;100329.47;;;1.65;100.00